Terminal Aerodrome Forecast
Issued by NWS Central Illinois

Home | Current Version | Previous Version | Text Only | Print | Product List | Glossary On
Versions: 1 2 3 4 5 6 7 8 9 10 11 12 13 14 15 16 17 18 19 20 21 22 23 24 25 26 27 28 29 30 31 32 33 34 35 36 37 38 39 40 41 42 43 44 45 46 47
000
FTUS43 KILX 170639 AAA
TAFPIA
TAF AMD
KPIA 170639Z 1707/1806 10004KT 2SM -FZRASN BR OVC005
     FM171000 05003KT 4SM BR VCSH OVC005
     FM171600 33003KT P6SM OVC007
     FM180300 30005KT P6SM BKN012=

USA.gov is the U.S. government's official web portal to all federal, state and local government web resources and services.